sensor_id;sensor_type;location;lat;lon;timestamp;P1;durP1;ratioP1;P2;durP2;ratioP2
62673;SDS011;62269;47.594;17.638;2023-02-23T00:00:26;12.10;;;9.05;;
62673;SDS011;62269;47.594;17.638;2023-02-23T00:02:03;11.25;;;9.68;;
62673;SDS011;62269;47.594;17.638;2023-02-23T00:02:51;11.32;;;8.80;;
62673;SDS011;62269;47.594;17.638;2023-02-23T00:03:38;11.50;;;9.50;;
62673;SDS011;62269;47.594;17.638;2023-02-23T00:04:26;12.52;;;10.00;;
62673;SDS011;62269;47.594;17.638;2023-02-23T00:05:13;11.85;;;10.02;;
62673;SDS011;62269;47.594;17.638;2023-02-23T00:06:01;11.65;;;9.38;;
62673;SDS011;62269;47.594;17.638;2023-02-23T00:06:49;11.95;;;9.32;;
62673;SDS011;62269;47.594;17.638;2023-02-23T00:07:40;14.07;;;10.68;;
62673;SDS011;62269;47.594;17.638;2023-02-23T00:08:29;11.75;;;9.60;;
62673;SDS011;62269;47.594;17.638;2023-02-23T00:09:17;11.50;;;9.35;;
62673;SDS011;62269;47.594;17.638;2023-02-23T00:10:21;12.43;;;9.95;;
62673;SDS011;62269;47.594;17.638;2023-02-23T00:11:15;14.23;;;10.80;;
62673;SDS011;62269;47.594;17.638;2023-02-23T00:12:04;13.18;;;10.77;;
62673;SDS011;62269;47.594;17.638;2023-02-23T00:12:56;15.10;;;10.70;;
62673;SDS011;62269;47.594;17.638;2023-02-23T00:13:47;17.90;;;11.65;;
62673;SDS011;62269;47.594;17.638;2023-02-23T00:14:37;13.35;;;11.00;;
62673;SDS011;62269;47.594;17.638;2023-02-23T00:15:25;14.15;;;10.90;;
62673;SDS011;62269;47.594;17.638;2023-02-23T00:16:13;13.90;;;11.10;;
62673;SDS011;62269;47.594;17.638;2023-02-23T00:17:08;12.35;;;10.20;;
62673;SDS011;62269;47.594;17.638;2023-02-23T00:18:00;15.13;;;11.57;;
62673;SDS011;62269;47.594;17.638;2023-02-23T00:18:50;13.85;;;10.73;;
62673;SDS011;62269;47.594;17.638;2023-02-23T00:19:39;15.68;;;12.30;;
62673;SDS011;62269;47.594;17.638;2023-02-23T00:20:29;13.00;;;10.82;;
62673;SDS011;62269;47.594;17.638;2023-02-23T00:21:17;16.10;;;11.63;;
62673;SDS011;62269;47.594;17.638;2023-02-23T00:22:06;15.93;;;11.52;;
62673;SDS011;62269;47.594;17.638;2023-02-23T00:22:56;14.13;;;11.15;;
62673;SDS011;62269;47.594;17.638;2023-02-23T00:23:51;14.73;;;11.68;;
62673;SDS011;62269;47.594;17.638;2023-02-23T00:24:39;13.52;;;11.27;;
62673;SDS011;62269;47.594;17.638;2023-02-23T00:25:28;14.52;;;11.65;;
62673;SDS011;62269;47.594;17.638;2023-02-23T00:26:17;13.62;;;11.50;;
62673;SDS011;62269;47.594;17.638;2023-02-23T00:27:06;14.20;;;11.20;;
62673;SDS011;62269;47.594;17.638;2023-02-23T00:27:53;13.43;;;10.88;;
62673;SDS011;62269;47.594;17.638;2023-02-23T00:28:41;14.63;;;11.55;;
62673;SDS011;62269;47.594;17.638;2023-02-23T00:29:29;13.88;;;10.50;;
62673;SDS011;62269;47.594;17.638;2023-02-23T00:30:23;11.95;;;10.10;;
62673;SDS011;62269;47.594;17.638;2023-02-23T00:31:11;14.45;;;10.57;;
62673;SDS011;62269;47.594;17.638;2023-02-23T00:31:59;12.73;;;9.90;;
62673;SDS011;62269;47.594;17.638;2023-02-23T00:32:46;13.07;;;11.00;;
62673;SDS011;62269;47.594;17.638;2023-02-23T00:33:33;14.50;;;9.63;;
62673;SDS011;62269;47.594;17.638;2023-02-23T00:34:20;11.82;;;9.65;;
62673;SDS011;62269;47.594;17.638;2023-02-23T00:35:09;12.18;;;10.05;;
62673;SDS011;62269;47.594;17.638;2023-02-23T00:36:04;11.57;;;9.43;;
62673;SDS011;62269;47.594;17.638;2023-02-23T00:36:55;13.45;;;9.18;;
62673;SDS011;62269;47.594;17.638;2023-02-23T00:37:46;11.88;;;10.07;;
62673;SDS011;62269;47.594;17.638;2023-02-23T00:38:34;10.27;;;8.55;;
62673;SDS011;62269;47.594;17.638;2023-02-23T00:39:22;10.88;;;8.65;;
62673;SDS011;62269;47.594;17.638;2023-02-23T00:40:15;10.15;;;8.68;;
62673;SDS011;62269;47.594;17.638;2023-02-23T00:41:03;10.45;;;8.45;;
62673;SDS011;62269;47.594;17.638;2023-02-23T00:41:52;11.27;;;8.65;;
62673;SDS011;62269;47.594;17.638;2023-02-23T00:42:39;12.65;;;9.00;;
62673;SDS011;62269;47.594;17.638;2023-02-23T00:43:26;10.45;;;8.90;;
62673;SDS011;62269;47.594;17.638;2023-02-23T00:44:14;10.95;;;8.52;;
62673;SDS011;62269;47.594;17.638;2023-02-23T00:45:01;11.10;;;8.90;;
62673;SDS011;62269;47.594;17.638;2023-02-23T00:45:54;10.43;;;8.50;;
62673;SDS011;62269;47.594;17.638;2023-02-23T00:46:42;11.65;;;8.75;;
62673;SDS011;62269;47.594;17.638;2023-02-23T00:47:29;9.93;;;8.20;;
62673;SDS011;62269;47.594;17.638;2023-02-23T00:48:16;10.30;;;8.70;;
62673;SDS011;62269;47.594;17.638;2023-02-23T00:49:03;13.77;;;8.90;;
62673;SDS011;62269;47.594;17.638;2023-02-23T00:49:50;10.20;;;8.80;;
62673;SDS011;62269;47.594;17.638;2023-02-23T00:50:37;12.50;;;8.85;;
62673;SDS011;62269;47.594;17.638;2023-02-23T00:51:27;11.98;;;8.43;;
62673;SDS011;62269;47.594;17.638;2023-02-23T00:52:17;9.98;;;8.20;;
62673;SDS011;62269;47.594;17.638;2023-02-23T00:53:05;12.15;;;8.45;;
62673;SDS011;62269;47.594;17.638;2023-02-23T00:53:58;11.10;;;8.20;;
62673;SDS011;62269;47.594;17.638;2023-02-23T00:54:45;11.18;;;9.07;;
62673;SDS011;62269;47.594;17.638;2023-02-23T00:55:32;11.10;;;9.10;;
62673;SDS011;62269;47.594;17.638;2023-02-23T00:56:19;10.95;;;9.75;;
62673;SDS011;62269;47.594;17.638;2023-02-23T00:57:07;11.48;;;9.35;;
62673;SDS011;62269;47.594;17.638;2023-02-23T00:57:54;12.27;;;9.88;;
62673;SDS011;62269;47.594;17.638;2023-02-23T00:58:44;11.15;;;9.05;;
62673;SDS011;62269;47.594;17.638;2023-02-23T00:59:30;11.63;;;9.50;;
62673;SDS011;62269;47.594;17.638;2023-02-23T01:00:18;12.52;;;9.07;;
62673;SDS011;62269;47.594;17.638;2023-02-23T01:01:06;11.32;;;9.38;;
62673;SDS011;62269;47.594;17.638;2023-02-23T01:01:55;11.65;;;9.98;;
62673;SDS011;62269;47.594;17.638;2023-02-23T01:02:42;11.35;;;9.45;;
62673;SDS011;62269;47.594;17.638;2023-02-23T01:03:29;13.18;;;9.05;;
62673;SDS011;62269;47.594;17.638;2023-02-23T01:04:16;11.48;;;9.70;;
62673;SDS011;62269;47.594;17.638;2023-02-23T01:05:03;13.93;;;9.25;;
62673;SDS011;62269;47.594;17.638;2023-02-23T01:05:51;12.88;;;10.20;;
62673;SDS011;62269;47.594;17.638;2023-02-23T01:06:38;14.02;;;10.25;;
62673;SDS011;62269;47.594;17.638;2023-02-23T01:07:27;11.38;;;9.63;;
62673;SDS011;62269;47.594;17.638;2023-02-23T01:08:14;12.07;;;9.65;;
62673;SDS011;62269;47.594;17.638;2023-02-23T01:09:05;14.50;;;10.25;;
62673;SDS011;62269;47.594;17.638;2023-02-23T01:09:54;12.77;;;10.73;;
62673;SDS011;62269;47.594;17.638;2023-02-23T01:10:41;17.50;;;10.55;;
62673;SDS011;62269;47.594;17.638;2023-02-23T01:11:29;11.43;;;10.02;;
62673;SDS011;62269;47.594;17.638;2023-02-23T01:12:16;15.32;;;11.12;;
62673;SDS011;62269;47.594;17.638;2023-02-23T01:13:03;14.00;;;10.38;;
62673;SDS011;62269;47.594;17.638;2023-02-23T01:13:52;13.60;;;10.88;;
62673;SDS011;62269;47.594;17.638;2023-02-23T01:14:40;16.62;;;11.23;;
62673;SDS011;62269;47.594;17.638;2023-02-23T01:15:28;14.98;;;10.85;;
62673;SDS011;62269;47.594;17.638;2023-02-23T01:16:16;15.32;;;11.30;;
62673;SDS011;62269;47.594;17.638;2023-02-23T01:17:04;14.75;;;10.57;;
62673;SDS011;62269;47.594;17.638;2023-02-23T01:17:52;13.38;;;10.75;;
62673;SDS011;62269;47.594;17.638;2023-02-23T01:18:40;16.42;;;12.13;;
62673;SDS011;62269;47.594;17.638;2023-02-23T01:19:30;14.10;;;11.20;;
62673;SDS011;62269;47.594;17.638;2023-02-23T01:20:19;16.90;;;11.98;;
62673;SDS011;62269;47.594;17.638;2023-02-23T01:21:13;13.82;;;11.25;;
62673;SDS011;62269;47.594;17.638;2023-02-23T01:22:01;13.43;;;11.32;;
62673;SDS011;62269;47.594;17.638;2023-02-23T01:22:49;16.08;;;11.98;;
62673;SDS011;62269;47.594;17.638;2023-02-23T01:23:37;14.07;;;12.02;;
62673;SDS011;62269;47.594;17.638;2023-02-23T01:24:24;18.67;;;12.15;;
62673;SDS011;62269;47.594;17.638;2023-02-23T01:25:11;17.02;;;11.73;;
62673;SDS011;62269;47.594;17.638;2023-02-23T01:25:58;17.23;;;11.63;;
62673;SDS011;62269;47.594;17.638;2023-02-23T01:26:45;16.48;;;12.30;;
62673;SDS011;62269;47.594;17.638;2023-02-23T01:27:33;17.10;;;12.43;;
62673;SDS011;62269;47.594;17.638;2023-02-23T01:28:20;15.80;;;11.77;;
62673;SDS011;62269;47.594;17.638;2023-02-23T01:29:09;17.17;;;12.88;;
62673;SDS011;62269;47.594;17.638;2023-02-23T01:29:59;18.77;;;12.45;;
62673;SDS011;62269;47.594;17.638;2023-02-23T01:30:46;15.57;;;11.43;;
62673;SDS011;62269;47.594;17.638;2023-02-23T01:31:33;14.80;;;11.38;;
62673;SDS011;62269;47.594;17.638;2023-02-23T01:32:21;15.55;;;11.82;;
62673;SDS011;62269;47.594;17.638;2023-02-23T01:33:08;16.42;;;12.35;;
62673;SDS011;62269;47.594;17.638;2023-02-23T01:33:56;14.32;;;11.05;;
62673;SDS011;62269;47.594;17.638;2023-02-23T01:34:45;14.27;;;11.68;;
62673;SDS011;62269;47.594;17.638;2023-02-23T01:35:33;11.95;;;10.13;;
62673;SDS011;62269;47.594;17.638;2023-02-23T01:36:20;12.48;;;10.25;;
62673;SDS011;62269;47.594;17.638;2023-02-23T01:37:08;12.30;;;10.00;;
62673;SDS011;62269;47.594;17.638;2023-02-23T01:37:55;18.58;;;9.77;;
62673;SDS011;62269;47.594;17.638;2023-02-23T01:38:42;14.45;;;10.85;;
62673;SDS011;62269;47.594;17.638;2023-02-23T01:39:31;12.05;;;9.90;;
62673;SDS011;62269;47.594;17.638;2023-02-23T01:40:19;13.20;;;10.15;;
62673;SDS011;62269;47.594;17.638;2023-02-23T01:41:17;13.43;;;10.40;;
62673;SDS011;62269;47.594;17.638;2023-02-23T01:42:08;10.75;;;8.93;;
62673;SDS011;62269;47.594;17.638;2023-02-23T01:43:05;10.38;;;8.73;;
62673;SDS011;62269;47.594;17.638;2023-02-23T01:43:59;12.05;;;8.88;;
62673;SDS011;62269;47.594;17.638;2023-02-23T01:45:38;15.18;;;9.52;;
62673;SDS011;62269;47.594;17.638;2023-02-23T01:46:26;11.05;;;8.77;;
62673;SDS011;62269;47.594;17.638;2023-02-23T01:47:13;13.50;;;9.57;;
62673;SDS011;62269;47.594;17.638;2023-02-23T01:48:11;11.68;;;9.10;;
62673;SDS011;62269;47.594;17.638;2023-02-23T01:49:04;10.57;;;8.68;;
62673;SDS011;62269;47.594;17.638;2023-02-23T01:49:54;11.23;;;8.43;;
62673;SDS011;62269;47.594;17.638;2023-02-23T01:50:53;12.02;;;9.38;;
62673;SDS011;62269;47.594;17.638;2023-02-23T01:51:44;12.43;;;9.40;;
62673;SDS011;62269;47.594;17.638;2023-02-23T01:52:38;12.30;;;8.77;;
62673;SDS011;62269;47.594;17.638;2023-02-23T01:53:25;12.18;;;9.15;;
62673;SDS011;62269;47.594;17.638;2023-02-23T01:54:18;11.07;;;9.65;;
62673;SDS011;62269;47.594;17.638;2023-02-23T01:55:08;13.15;;;9.32;;
62673;SDS011;62269;47.594;17.638;2023-02-23T01:57:43;12.35;;;8.93;;
62673;SDS011;62269;47.594;17.638;2023-02-23T01:58:30;13.20;;;9.38;;
62673;SDS011;62269;47.594;17.638;2023-02-23T01:59:19;12.18;;;9.35;;
62673;SDS011;62269;47.594;17.638;2023-02-23T02:00:06;11.68;;;9.57;;
62673;SDS011;62269;47.594;17.638;2023-02-23T02:01:00;13.57;;;9.48;;
62673;SDS011;62269;47.594;17.638;2023-02-23T02:01:48;12.57;;;9.50;;
62673;SDS011;62269;47.594;17.638;2023-02-23T02:02:35;10.88;;;9.20;;
62673;SDS011;62269;47.594;17.638;2023-02-23T02:03:28;14.30;;;10.15;;
62673;SDS011;62269;47.594;17.638;2023-02-23T02:04:19;13.32;;;9.82;;
62673;SDS011;62269;47.594;17.638;2023-02-23T02:05:07;13.30;;;9.82;;
62673;SDS011;62269;47.594;17.638;2023-02-23T02:06:00;15.13;;;10.00;;
62673;SDS011;62269;47.594;17.638;2023-02-23T02:06:48;12.90;;;9.93;;
62673;SDS011;62269;47.594;17.638;2023-02-23T02:07:40;13.98;;;9.95;;
62673;SDS011;62269;47.594;17.638;2023-02-23T02:08:31;13.73;;;10.38;;
62673;SDS011;62269;47.594;17.638;2023-02-23T02:09:21;11.35;;;9.57;;
62673;SDS011;62269;47.594;17.638;2023-02-23T02:10:11;12.68;;;10.32;;
62673;SDS011;62269;47.594;17.638;2023-02-23T02:10:58;13.35;;;9.63;;
62673;SDS011;62269;47.594;17.638;2023-02-23T02:11:45;15.90;;;9.93;;
62673;SDS011;62269;47.594;17.638;2023-02-23T02:12:50;12.07;;;9.55;;
62673;SDS011;62269;47.594;17.638;2023-02-23T02:13:39;14.20;;;9.68;;
62673;SDS011;62269;47.594;17.638;2023-02-23T02:14:26;12.98;;;9.80;;
62673;SDS011;62269;47.594;17.638;2023-02-23T02:15:16;12.57;;;10.15;;
62673;SDS011;62269;47.594;17.638;2023-02-23T02:16:25;13.93;;;9.90;;
62673;SDS011;62269;47.594;17.638;2023-02-23T02:18:16;11.52;;;9.00;;
62673;SDS011;62269;47.594;17.638;2023-02-23T02:23:50;16.48;;;12.00;;
62673;SDS011;62269;47.594;17.638;2023-02-23T02:25:02;15.60;;;11.75;;
62673;SDS011;62269;47.594;17.638;2023-02-23T02:26:31;15.35;;;12.55;;
62673;SDS011;62269;47.594;17.638;2023-02-23T02:27:25;15.50;;;12.13;;
62673;SDS011;62269;47.594;17.638;2023-02-23T02:30:44;23.00;;;14.90;;
62673;SDS011;62269;47.594;17.638;2023-02-23T02:39:20;18.12;;;13.60;;
62673;SDS011;62269;47.594;17.638;2023-02-23T02:41:12;20.17;;;13.55;;
62673;SDS011;62269;47.594;17.638;2023-02-23T02:43:20;17.23;;;12.73;;
62673;SDS011;62269;47.594;17.638;2023-02-23T02:45:21;17.60;;;13.47;;
62673;SDS011;62269;47.594;17.638;2023-02-23T02:47:15;19.60;;;13.52;;
62673;SDS011;62269;47.594;17.638;2023-02-23T02:49:25;17.90;;;14.00;;
62673;SDS011;62269;47.594;17.638;2023-02-23T02:50:21;21.15;;;14.87;;
62673;SDS011;62269;47.594;17.638;2023-02-23T02:52:24;17.70;;;14.05;;
62673;SDS011;62269;47.594;17.638;2023-02-23T02:54:37;16.10;;;13.13;;
62673;SDS011;62269;47.594;17.638;2023-02-23T02:55:29;19.58;;;14.48;;
62673;SDS011;62269;47.594;17.638;2023-02-23T02:56:23;18.15;;;13.68;;
62673;SDS011;62269;47.594;17.638;2023-02-23T02:57:12;17.02;;;14.05;;
62673;SDS011;62269;47.594;17.638;2023-02-23T02:58:01;16.95;;;14.15;;
62673;SDS011;62269;47.594;17.638;2023-02-23T02:58:53;16.73;;;13.70;;
62673;SDS011;62269;47.594;17.638;2023-02-23T02:59:42;17.25;;;13.35;;
62673;SDS011;62269;47.594;17.638;2023-02-23T03:00:52;18.55;;;13.93;;
62673;SDS011;62269;47.594;17.638;2023-02-23T03:01:58;19.23;;;14.68;;
62673;SDS011;62269;47.594;17.638;2023-02-23T03:03:04;17.05;;;12.25;;
62673;SDS011;62269;47.594;17.638;2023-02-23T03:04:21;18.23;;;13.40;;
62673;SDS011;62269;47.594;17.638;2023-02-23T03:05:29;15.77;;;12.37;;
62673;SDS011;62269;47.594;17.638;2023-02-23T03:06:51;17.50;;;12.52;;
62673;SDS011;62269;47.594;17.638;2023-02-23T03:11:09;13.88;;;11.43;;
62673;SDS011;62269;47.594;17.638;2023-02-23T03:12:23;16.23;;;11.85;;
62673;SDS011;62269;47.594;17.638;2023-02-23T03:17:34;13.52;;;10.18;;
62673;SDS011;62269;47.594;17.638;2023-02-23T03:20:14;13.20;;;10.40;;
62673;SDS011;62269;47.594;17.638;2023-02-23T03:21:28;14.55;;;10.95;;
62673;SDS011;62269;47.594;17.638;2023-02-23T03:22:41;13.27;;;10.45;;
62673;SDS011;62269;47.594;17.638;2023-02-23T03:26:35;14.15;;;10.48;;
62673;SDS011;62269;47.594;17.638;2023-02-23T03:27:51;12.55;;;10.05;;
62673;SDS011;62269;47.594;17.638;2023-02-23T03:30:11;14.65;;;11.02;;
62673;SDS011;62269;47.594;17.638;2023-02-23T03:31:27;14.52;;;10.35;;
62673;SDS011;62269;47.594;17.638;2023-02-23T03:32:38;13.40;;;10.70;;
62673;SDS011;62269;47.594;17.638;2023-02-23T03:35:18;13.98;;;10.65;;
62673;SDS011;62269;47.594;17.638;2023-02-23T03:36:31;15.52;;;11.82;;
62673;SDS011;62269;47.594;17.638;2023-02-23T03:37:40;13.70;;;10.88;;
62673;SDS011;62269;47.594;17.638;2023-02-23T03:38:57;12.20;;;9.88;;
62673;SDS011;62269;47.594;17.638;2023-02-23T03:40:16;17.37;;;11.25;;
62673;SDS011;62269;47.594;17.638;2023-02-23T03:41:25;16.73;;;12.02;;
62673;SDS011;62269;47.594;17.638;2023-02-23T03:42:32;14.77;;;10.57;;
62673;SDS011;62269;47.594;17.638;2023-02-23T03:43:45;16.48;;;11.48;;
62673;SDS011;62269;47.594;17.638;2023-02-23T03:44:55;15.32;;;11.45;;
62673;SDS011;62269;47.594;17.638;2023-02-23T03:46:02;16.00;;;12.15;;
62673;SDS011;62269;47.594;17.638;2023-02-23T03:47:09;16.08;;;11.65;;
62673;SDS011;62269;47.594;17.638;2023-02-23T03:48:16;17.42;;;13.10;;
62673;SDS011;62269;47.594;17.638;2023-02-23T03:49:25;13.90;;;11.52;;
62673;SDS011;62269;47.594;17.638;2023-02-23T03:50:37;13.82;;;11.27;;
62673;SDS011;62269;47.594;17.638;2023-02-23T03:51:49;15.63;;;12.88;;
62673;SDS011;62269;47.594;17.638;2023-02-23T03:52:57;14.93;;;11.73;;
62673;SDS011;62269;47.594;17.638;2023-02-23T03:54:25;16.40;;;13.30;;
62673;SDS011;62269;47.594;17.638;2023-02-23T03:55:36;16.10;;;13.43;;
62673;SDS011;62269;47.594;17.638;2023-02-23T03:56:45;15.45;;;12.00;;
62673;SDS011;62269;47.594;17.638;2023-02-23T03:57:53;18.23;;;13.57;;
62673;SDS011;62269;47.594;17.638;2023-02-23T03:58:59;19.58;;;14.73;;
62673;SDS011;62269;47.594;17.638;2023-02-23T04:00:08;20.80;;;15.15;;
62673;SDS011;62269;47.594;17.638;2023-02-23T04:01:16;23.02;;;15.77;;
62673;SDS011;62269;47.594;17.638;2023-02-23T04:02:23;21.58;;;14.38;;
62673;SDS011;62269;47.594;17.638;2023-02-23T04:03:29;19.15;;;15.75;;
62673;SDS011;62269;47.594;17.638;2023-02-23T04:04:37;19.00;;;15.05;;
62673;SDS011;62269;47.594;17.638;2023-02-23T04:05:44;18.65;;;15.10;;
62673;SDS011;62269;47.594;17.638;2023-02-23T04:06:51;20.17;;;15.55;;
62673;SDS011;62269;47.594;17.638;2023-02-23T04:07:59;20.10;;;15.48;;
62673;SDS011;62269;47.594;17.638;2023-02-23T04:09:07;19.00;;;14.15;;
62673;SDS011;62269;47.594;17.638;2023-02-23T04:10:13;19.65;;;15.02;;
62673;SDS011;62269;47.594;17.638;2023-02-23T04:11:20;21.33;;;15.82;;
62673;SDS011;62269;47.594;17.638;2023-02-23T04:14:03;18.98;;;14.80;;
62673;SDS011;62269;47.594;17.638;2023-02-23T04:15:54;21.08;;;16.45;;
62673;SDS011;62269;47.594;17.638;2023-02-23T04:16:43;19.60;;;16.15;;
62673;SDS011;62269;47.594;17.638;2023-02-23T04:17:31;18.55;;;15.55;;
62673;SDS011;62269;47.594;17.638;2023-02-23T04:18:25;17.67;;;15.52;;
62673;SDS011;62269;47.594;17.638;2023-02-23T04:19:13;19.37;;;15.50;;
62673;SDS011;62269;47.594;17.638;2023-02-23T04:20:00;21.77;;;16.85;;
62673;SDS011;62269;47.594;17.638;2023-02-23T04:20:47;22.50;;;16.02;;
62673;SDS011;62269;47.594;17.638;2023-02-23T04:21:34;21.65;;;16.48;;
62673;SDS011;62269;47.594;17.638;2023-02-23T04:22:22;21.25;;;16.90;;
62673;SDS011;62269;47.594;17.638;2023-02-23T04:23:09;20.98;;;16.80;;
62673;SDS011;62269;47.594;17.638;2023-02-23T04:23:56;20.12;;;15.73;;
62673;SDS011;62269;47.594;17.638;2023-02-23T04:24:43;23.45;;;18.52;;
62673;SDS011;62269;47.594;17.638;2023-02-23T04:25:31;23.48;;;17.87;;
62673;SDS011;62269;47.594;17.638;2023-02-23T04:26:18;23.08;;;16.65;;
62673;SDS011;62269;47.594;17.638;2023-02-23T04:27:05;21.70;;;16.55;;
62673;SDS011;62269;47.594;17.638;2023-02-23T04:27:52;21.02;;;16.83;;
62673;SDS011;62269;47.594;17.638;2023-02-23T04:28:39;21.42;;;17.00;;
62673;SDS011;62269;47.594;17.638;2023-02-23T04:29:26;19.85;;;16.48;;
62673;SDS011;62269;47.594;17.638;2023-02-23T04:30:14;24.42;;;17.80;;
62673;SDS011;62269;47.594;17.638;2023-02-23T04:31:01;23.90;;;18.83;;
62673;SDS011;62269;47.594;17.638;2023-02-23T04:31:48;23.33;;;18.15;;
62673;SDS011;62269;47.594;17.638;2023-02-23T04:32:36;21.85;;;18.17;;
62673;SDS011;62269;47.594;17.638;2023-02-23T04:33:23;22.83;;;18.10;;
62673;SDS011;62269;47.594;17.638;2023-02-23T04:34:11;24.48;;;18.80;;
62673;SDS011;62269;47.594;17.638;2023-02-23T04:34:58;22.55;;;18.87;;
62673;SDS011;62269;47.594;17.638;2023-02-23T04:35:45;24.02;;;18.25;;
62673;SDS011;62269;47.594;17.638;2023-02-23T04:36:32;22.13;;;19.08;;
62673;SDS011;62269;47.594;17.638;2023-02-23T04:37:19;25.50;;;18.55;;
62673;SDS011;62269;47.594;17.638;2023-02-23T04:38:06;24.00;;;19.08;;
62673;SDS011;62269;47.594;17.638;2023-02-23T04:38:54;26.15;;;19.62;;
62673;SDS011;62269;47.594;17.638;2023-02-23T04:39:41;22.70;;;18.80;;
62673;SDS011;62269;47.594;17.638;2023-02-23T04:40:35;23.10;;;18.87;;
62673;SDS011;62269;47.594;17.638;2023-02-23T04:41:22;24.92;;;19.00;;
62673;SDS011;62269;47.594;17.638;2023-02-23T04:42:09;21.67;;;18.55;;
62673;SDS011;62269;47.594;17.638;2023-02-23T04:42:56;24.25;;;19.65;;
62673;SDS011;62269;47.594;17.638;2023-02-23T04:43:44;23.67;;;19.23;;
62673;SDS011;62269;47.594;17.638;2023-02-23T04:44:31;20.37;;;18.23;;
62673;SDS011;62269;47.594;17.638;2023-02-23T04:45:18;21.80;;;18.10;;
62673;SDS011;62269;47.594;17.638;2023-02-23T04:46:05;25.23;;;18.87;;
62673;SDS011;62269;47.594;17.638;2023-02-23T04:46:53;21.08;;;17.65;;
62673;SDS011;62269;47.594;17.638;2023-02-23T04:47:39;23.75;;;18.17;;
62673;SDS011;62269;47.594;17.638;2023-02-23T04:48:27;22.60;;;17.52;;
62673;SDS011;62269;47.594;17.638;2023-02-23T04:49:14;23.90;;;18.80;;
62673;SDS011;62269;47.594;17.638;2023-02-23T04:50:01;24.35;;;18.42;;
62673;SDS011;62269;47.594;17.638;2023-02-23T04:50:50;22.13;;;18.35;;
62673;SDS011;62269;47.594;17.638;2023-02-23T04:51:38;22.23;;;17.83;;
62673;SDS011;62269;47.594;17.638;2023-02-23T04:52:25;23.60;;;17.48;;
62673;SDS011;62269;47.594;17.638;2023-02-23T04:53:12;21.87;;;18.17;;
62673;SDS011;62269;47.594;17.638;2023-02-23T04:53:59;22.55;;;18.40;;
62673;SDS011;62269;47.594;17.638;2023-02-23T04:54:46;23.10;;;18.48;;
62673;SDS011;62269;47.594;17.638;2023-02-23T04:55:33;22.67;;;18.60;;
62673;SDS011;62269;47.594;17.638;2023-02-23T04:56:20;23.38;;;19.37;;
62673;SDS011;62269;47.594;17.638;2023-02-23T04:57:07;22.13;;;18.40;;
62673;SDS011;62269;47.594;17.638;2023-02-23T04:57:59;24.37;;;18.73;;
62673;SDS011;62269;47.594;17.638;2023-02-23T04:58:47;25.37;;;20.05;;
62673;SDS011;62269;47.594;17.638;2023-02-23T04:59:34;26.10;;;20.15;;
62673;SDS011;62269;47.594;17.638;2023-02-23T05:00:21;26.55;;;20.35;;
62673;SDS011;62269;47.594;17.638;2023-02-23T05:01:08;29.60;;;21.30;;
62673;SDS011;62269;47.594;17.638;2023-02-23T05:01:56;25.55;;;19.35;;
62673;SDS011;62269;47.594;17.638;2023-02-23T05:02:43;25.83;;;19.67;;
62673;SDS011;62269;47.594;17.638;2023-02-23T05:03:31;27.50;;;20.77;;
62673;SDS011;62269;47.594;17.638;2023-02-23T05:04:18;26.60;;;19.67;;
62673;SDS011;62269;47.594;17.638;2023-02-23T05:05:05;26.87;;;20.90;;
62673;SDS011;62269;47.594;17.638;2023-02-23T05:05:54;25.37;;;20.92;;
62673;SDS011;62269;47.594;17.638;2023-02-23T05:06:42;25.02;;;19.83;;
62673;SDS011;62269;47.594;17.638;2023-02-23T05:07:29;27.30;;;20.95;;
62673;SDS011;62269;47.594;17.638;2023-02-23T05:08:15;25.00;;;20.15;;
62673;SDS011;62269;47.594;17.638;2023-02-23T05:09:03;24.25;;;20.40;;
62673;SDS011;62269;47.594;17.638;2023-02-23T05:09:51;25.23;;;20.55;;
62673;SDS011;62269;47.594;17.638;2023-02-23T05:10:38;26.52;;;20.17;;
62673;SDS011;62269;47.594;17.638;2023-02-23T05:11:26;25.12;;;19.23;;
62673;SDS011;62269;47.594;17.638;2023-02-23T05:12:13;25.73;;;20.12;;
62673;SDS011;62269;47.594;17.638;2023-02-23T05:13:00;26.87;;;20.15;;
62673;SDS011;62269;47.594;17.638;2023-02-23T05:13:47;23.87;;;19.00;;
62673;SDS011;62269;47.594;17.638;2023-02-23T05:14:34;24.23;;;18.98;;
62673;SDS011;62269;47.594;17.638;2023-02-23T05:15:21;22.52;;;19.33;;
62673;SDS011;62269;47.594;17.638;2023-02-23T05:16:08;26.60;;;20.65;;
62673;SDS011;62269;47.594;17.638;2023-02-23T05:16:55;24.42;;;18.48;;
62673;SDS011;62269;47.594;17.638;2023-02-23T05:17:42;23.20;;;18.58;;
62673;SDS011;62269;47.594;17.638;2023-02-23T05:18:29;24.67;;;18.87;;
62673;SDS011;62269;47.594;17.638;2023-02-23T05:19:16;22.58;;;19.25;;
62673;SDS011;62269;47.594;17.638;2023-02-23T05:20:03;21.58;;;18.33;;
62673;SDS011;62269;47.594;17.638;2023-02-23T05:20:51;23.75;;;19.40;;
62673;SDS011;62269;47.594;17.638;2023-02-23T05:21:39;22.92;;;18.33;;
62673;SDS011;62269;47.594;17.638;2023-02-23T05:22:27;22.83;;;19.08;;
62673;SDS011;62269;47.594;17.638;2023-02-23T05:23:14;22.55;;;17.98;;
62673;SDS011;62269;47.594;17.638;2023-02-23T05:24:01;20.70;;;18.17;;
62673;SDS011;62269;47.594;17.638;2023-02-23T05:24:48;20.62;;;18.30;;
62673;SDS011;62269;47.594;17.638;2023-02-23T05:25:36;22.48;;;17.83;;
62673;SDS011;62269;47.594;17.638;2023-02-23T05:26:24;23.25;;;17.87;;
62673;SDS011;62269;47.594;17.638;2023-02-23T05:27:11;22.30;;;18.30;;
62673;SDS011;62269;47.594;17.638;2023-02-23T05:27:59;20.17;;;17.70;;
62673;SDS011;62269;47.594;17.638;2023-02-23T05:28:46;22.75;;;18.37;;
62673;SDS011;62269;47.594;17.638;2023-02-23T05:29:34;22.37;;;18.05;;
62673;SDS011;62269;47.594;17.638;2023-02-23T05:30:21;22.58;;;17.42;;
62673;SDS011;62269;47.594;17.638;2023-02-23T05:31:08;23.92;;;19.37;;
62673;SDS011;62269;47.594;17.638;2023-02-23T05:31:56;22.73;;;18.60;;
62673;SDS011;62269;47.594;17.638;2023-02-23T05:32:43;25.08;;;19.20;;
62673;SDS011;62269;47.594;17.638;2023-02-23T05:33:30;22.45;;;18.90;;
62673;SDS011;62269;47.594;17.638;2023-02-23T05:34:18;21.60;;;17.92;;
62673;SDS011;62269;47.594;17.638;2023-02-23T05:35:05;24.35;;;19.58;;
62673;SDS011;62269;47.594;17.638;2023-02-23T05:35:53;25.17;;;19.05;;
62673;SDS011;62269;47.594;17.638;2023-02-23T05:36:40;25.70;;;20.35;;
62673;SDS011;62269;47.594;17.638;2023-02-23T05:37:27;21.33;;;18.30;;
62673;SDS011;62269;47.594;17.638;2023-02-23T05:38:14;27.73;;;19.10;;
62673;SDS011;62269;47.594;17.638;2023-02-23T05:39:01;23.92;;;19.70;;
62673;SDS011;62269;47.594;17.638;2023-02-23T05:39:49;28.20;;;20.98;;
62673;SDS011;62269;47.594;17.638;2023-02-23T05:40:36;26.85;;;21.45;;
62673;SDS011;62269;47.594;17.638;2023-02-23T05:41:23;26.15;;;19.40;;
62673;SDS011;62269;47.594;17.638;2023-02-23T05:42:10;27.40;;;20.62;;
62673;SDS011;62269;47.594;17.638;2023-02-23T05:42:57;23.95;;;19.73;;
62673;SDS011;62269;47.594;17.638;2023-02-23T05:43:45;21.98;;;18.83;;
62673;SDS011;62269;47.594;17.638;2023-02-23T05:44:33;22.00;;;19.37;;
62673;SDS011;62269;47.594;17.638;2023-02-23T05:45:20;24.37;;;19.00;;